Norfolk Island International Airport
YSNF : now visible

Airfield :











YOU CAN JOIN US ON...

 
LOGIN :

Register | Disclaimer

   EN    FR    IT 

 









Legend :    VFR   Marginal VFR   IFR   Intensive IFR   Very Intensive IFR
Visi :
Ceiling :
>= 8 km
>= 3000ft
5 to 8 km
1000 to 3000 ft
1500m to 5 km
500 to 1000 ft
800 to 1500m
200 to 500 ft
< 800m
< 200 ft
Symbols :   Thunderstorms  Fog  Heavy snow  Heavy precipitations  Wind > 20 kt






- Airport Elevation : 371 ft
- IATA code : NLK


YSNF - Norfolk Island International

CURRENT METAR :
  • 301900Z AUTO 00000KT 9999 // ////// 14/10 Q1023 RF00.0/000.2

EXPIRED METARs :
  • 301830Z AUTO 35002KT 9999 // ////// 15/09 Q1022 RF00.0/000.2
  • 301800Z AUTO 31004KT 9999 // ////// 15/10 Q1022 RF00.0/000.2
  • 301730Z AUTO 27005KT 9999 // ////// 15/10 Q1022 RF00.0/000.2
  • 301700Z AUTO 26005KT 9999 // ////// 15/10 Q1022 RF00.0/000.2
  • 301630Z AUTO 00000KT 9999 // ////// 15/10 Q1022 RF00.0/000.2

TAF TAF YSNF
Valid from the 30 at 18:00 until the 01 at 18:00 UTC


301712Z 3018/0118 22006KT 9999 BKN040
NZZO FIR / Oceania



MET'MAP, your aeronautical weather chart ! - Copyright ORBIFLY December 2007 - Disclaimer

ORBIFLY MET'MAP TEAM :

Programming & Development : Alexandra Zaïnal
Original concept : Baudouin d'Aumeries
Technical & hardware support : Manuel Goepfert
Assistance : Marc-Olivier Méhu




SOURCES & CREDITS :

   NOAA       Earth
Advisory